sensor_id;sensor_type;location;lat;lon;timestamp;pressure;altitude;pressure_sealevel;temperature;humidity
10718;BME280;13513;42.700;23.124;2023-06-14T00:02:06;92686.45;;;17.13;100.00
10718;BME280;13513;42.700;23.124;2023-06-14T00:04:37;92682.78;;;17.09;100.00
10718;BME280;13513;42.700;23.124;2023-06-14T00:07:14;92679.88;;;17.08;100.00
10718;BME280;13513;42.700;23.124;2023-06-14T00:09:45;92683.36;;;17.06;100.00
10718;BME280;13513;42.700;23.124;2023-06-14T00:12:16;92693.33;;;17.01;100.00
10718;BME280;13513;42.700;23.124;2023-06-14T00:14:47;92691.74;;;17.00;100.00
10718;BME280;13513;42.700;23.124;2023-06-14T00:17:18;92689.56;;;17.02;100.00
10718;BME280;13513;42.700;23.124;2023-06-14T00:19:48;92687.66;;;17.05;100.00
10718;BME280;13513;42.700;23.124;2023-06-14T00:22:19;92681.73;;;17.08;100.00
10718;BME280;13513;42.700;23.124;2023-06-14T00:24:51;92685.66;;;17.13;100.00
10718;BME280;13513;42.700;23.124;2023-06-14T00:27:21;92682.64;;;17.19;100.00
10718;BME280;13513;42.700;23.124;2023-06-14T00:29:52;92682.64;;;17.19;100.00
10718;BME280;13513;42.700;23.124;2023-06-14T00:32:23;92683.45;;;17.17;100.00
10718;BME280;13513;42.700;23.124;2023-06-14T00:34:54;92671.97;;;17.17;100.00
10718;BME280;13513;42.700;23.124;2023-06-14T00:37:25;92671.30;;;17.25;100.00
10718;BME280;13513;42.700;23.124;2023-06-14T00:39:56;92663.90;;;17.22;100.00
10718;BME280;13513;42.700;23.124;2023-06-14T00:42:28;92658.33;;;17.18;100.00
10718;BME280;13513;42.700;23.124;2023-06-14T00:44:59;92665.58;;;17.15;100.00
10718;BME280;13513;42.700;23.124;2023-06-14T00:47:30;92662.91;;;17.15;100.00
10718;BME280;13513;42.700;23.124;2023-06-14T00:50:01;92661.00;;;17.18;100.00
10718;BME280;13513;42.700;23.124;2023-06-14T00:52:32;92666.91;;;17.18;100.00
10718;BME280;13513;42.700;23.124;2023-06-14T00:55:03;92667.14;;;17.19;100.00
10718;BME280;13513;42.700;23.124;2023-06-14T00:57:34;92664.23;;;17.18;100.00
10718;BME280;13513;42.700;23.124;2023-06-14T01:00:03;92663.38;;;17.20;100.00
10718;BME280;13513;42.700;23.124;2023-06-14T01:02:35;92663.95;;;17.19;100.00
10718;BME280;13513;42.700;23.124;2023-06-14T01:05:09;92658.42;;;17.13;100.00
10718;BME280;13513;42.700;23.124;2023-06-14T01:07:55;92659.71;;;17.00;100.00
10718;BME280;13513;42.700;23.124;2023-06-14T01:13:07;92662.20;;;16.94;100.00
10718;BME280;13513;42.700;23.124;2023-06-14T01:15:37;92659.71;;;17.00;100.00
10718;BME280;13513;42.700;23.124;2023-06-14T01:18:09;92658.56;;;17.06;100.00
10718;BME280;13513;42.700;23.124;2023-06-14T01:20:40;92657.42;;;17.09;100.00
10718;BME280;13513;42.700;23.124;2023-06-14T01:23:12;92653.08;;;17.13;100.00
10718;BME280;13513;42.700;23.124;2023-06-14T01:25:41;92659.67;;;17.18;100.00
10718;BME280;13513;42.700;23.124;2023-06-14T01:28:13;92652.13;;;17.23;100.00
10718;BME280;13513;42.700;23.124;2023-06-14T01:30:48;92651.37;;;17.20;100.00
10718;BME280;13513;42.700;23.124;2023-06-14T01:33:23;92652.13;;;17.23;100.00
10718;BME280;13513;42.700;23.124;2023-06-14T01:35:55;92652.94;;;17.21;100.00
10718;BME280;13513;42.700;23.124;2023-06-14T01:38:27;92651.88;;;17.22;100.00
10718;BME280;13513;42.700;23.124;2023-06-14T01:40:59;92656.70;;;17.20;100.00
10718;BME280;13513;42.700;23.124;2023-06-14T01:43:32;92654.27;;;17.23;100.00
10718;BME280;13513;42.700;23.124;2023-06-14T01:46:04;92653.13;;;17.27;100.00
10718;BME280;13513;42.700;23.124;2023-06-14T01:48:35;92657.84;;;17.32;100.00
10718;BME280;13513;42.700;23.124;2023-06-14T01:51:07;92656.98;;;17.34;100.00
10718;BME280;13513;42.700;23.124;2023-06-14T01:53:38;92663.38;;;17.36;100.00
10718;BME280;13513;42.700;23.124;2023-06-14T01:56:11;92659.64;;;17.37;100.00
10718;BME280;13513;42.700;23.124;2023-06-14T01:58:42;92671.34;;;17.38;100.00
10718;BME280;13513;42.700;23.124;2023-06-14T02:01:13;92674.39;;;17.32;100.00
10718;BME280;13513;42.700;23.124;2023-06-14T02:03:44;92678.40;;;17.32;100.00
10718;BME280;13513;42.700;23.124;2023-06-14T02:06:15;92682.97;;;17.31;100.00
10718;BME280;13513;42.700;23.124;2023-06-14T02:08:46;92692.80;;;17.33;100.00
10718;BME280;13513;42.700;23.124;2023-06-14T02:11:17;92682.36;;;17.34;100.00
10718;BME280;13513;42.700;23.124;2023-06-14T02:13:47;92686.34;;;17.37;100.00
10718;BME280;13513;42.700;23.124;2023-06-14T02:16:18;92682.83;;;17.39;100.00
10718;BME280;13513;42.700;23.124;2023-06-14T02:18:51;92681.49;;;17.39;100.00
10718;BME280;13513;42.700;23.124;2023-06-14T02:21:24;92687.22;;;17.32;100.00
10718;BME280;13513;42.700;23.124;2023-06-14T02:23:55;92688.98;;;17.23;100.00
10718;BME280;13513;42.700;23.124;2023-06-14T02:26:26;92688.55;;;17.16;100.00
10718;BME280;13513;42.700;23.124;2023-06-14T02:28:57;92689.38;;;17.14;100.00
10718;BME280;13513;42.700;23.124;2023-06-14T02:31:28;92689.98;;;17.09;100.00
10718;BME280;13513;42.700;23.124;2023-06-14T02:33:59;92686.59;;;17.06;100.00
10718;BME280;13513;42.700;23.124;2023-06-14T02:36:30;92691.50;;;16.99;100.00
10718;BME280;13513;42.700;23.124;2023-06-14T02:39:01;92688.62;;;16.77;100.00
10718;BME280;13513;42.700;23.124;2023-06-14T02:41:32;92692.16;;;16.54;100.00
10718;BME280;13513;42.700;23.124;2023-06-14T02:44:01;92694.30;;;16.52;100.00
10718;BME280;13513;42.700;23.124;2023-06-14T02:46:32;92688.59;;;16.61;100.00
10718;BME280;13513;42.700;23.124;2023-06-14T02:49:02;92691.62;;;16.54;100.00
10718;BME280;13513;42.700;23.124;2023-06-14T02:51:32;92691.74;;;16.44;100.00
10718;BME280;13513;42.700;23.124;2023-06-14T02:54:06;92692.64;;;16.35;100.00
10718;BME280;13513;42.700;23.124;2023-06-14T02:56:37;92692.84;;;16.38;100.00
10718;BME280;13513;42.700;23.124;2023-06-14T02:59:08;92692.31;;;16.39;100.00
10718;BME280;13513;42.700;23.124;2023-06-14T03:01:39;92701.64;;;16.41;100.00
10718;BME280;13513;42.700;23.124;2023-06-14T03:04:11;92704.03;;;16.43;100.00
10718;BME280;13513;42.700;23.124;2023-06-14T03:06:42;92703.47;;;16.46;100.00
10718;BME280;13513;42.700;23.124;2023-06-14T03:09:13;92705.61;;;16.44;100.00
10718;BME280;13513;42.700;23.124;2023-06-14T03:11:44;92705.41;;;16.59;100.00
10718;BME280;13513;42.700;23.124;2023-06-14T03:14:15;92706.34;;;16.49;100.00
10718;BME280;13513;42.700;23.124;2023-06-14T03:16:46;92712.92;;;16.57;100.00
10718;BME280;13513;42.700;23.124;2023-06-14T03:19:17;92715.80;;;16.60;100.00
10718;BME280;13513;42.700;23.124;2023-06-14T03:21:48;92718.09;;;16.69;100.00
10718;BME280;13513;42.700;23.124;2023-06-14T03:24:19;92718.22;;;16.78;100.00
10718;BME280;13513;42.700;23.124;2023-06-14T03:26:49;92715.75;;;16.84;100.00
10718;BME280;13513;42.700;23.124;2023-06-14T03:29:19;92713.17;;;16.76;100.00
10718;BME280;13513;42.700;23.124;2023-06-14T03:32:00;92721.50;;;16.72;100.00
10718;BME280;13513;42.700;23.124;2023-06-14T03:34:31;92716.16;;;16.72;100.00
10718;BME280;13513;42.700;23.124;2023-06-14T03:37:02;92718.34;;;16.70;100.00
10718;BME280;13513;42.700;23.124;2023-06-14T03:39:33;92720.81;;;16.64;100.00
10718;BME280;13513;42.700;23.124;2023-06-14T03:42:04;92717.90;;;16.63;100.00
10718;BME280;13513;42.700;23.124;2023-06-14T03:44:35;92718.70;;;16.61;100.00
10718;BME280;13513;42.700;23.124;2023-06-14T03:47:06;92717.45;;;16.56;100.00
10718;BME280;13513;42.700;23.124;2023-06-14T03:49:37;92719.91;;;16.53;100.00
10718;BME280;13513;42.700;23.124;2023-06-14T03:52:08;92732.13;;;16.56;100.00
10718;BME280;13513;42.700;23.124;2023-06-14T03:54:39;92728.97;;;16.73;100.00
10718;BME280;13513;42.700;23.124;2023-06-14T03:57:09;92726.47;;;16.79;100.00
10718;BME280;13513;42.700;23.124;2023-06-14T03:59:40;92724.64;;;16.77;100.00
10718;BME280;13513;42.700;23.124;2023-06-14T04:02:10;92726.81;;;16.93;100.00
10718;BME280;13513;42.700;23.124;2023-06-14T04:04:41;92730.59;;;17.08;100.00
10718;BME280;13513;42.700;23.124;2023-06-14T04:07:15;92734.20;;;17.33;100.00
10718;BME280;13513;42.700;23.124;2023-06-14T04:09:49;92731.78;;;17.53;100.00
10718;BME280;13513;42.700;23.124;2023-06-14T04:12:25;92719.41;;;17.73;100.00
10718;BME280;13513;42.700;23.124;2023-06-14T04:14:56;92717.51;;;17.89;100.00
10718;BME280;13513;42.700;23.124;2023-06-14T04:17:27;92724.98;;;18.03;100.00
10718;BME280;13513;42.700;23.124;2023-06-14T04:19:57;92718.57;;;18.31;100.00
10718;BME280;13513;42.700;23.124;2023-06-14T04:22:27;92717.27;;;18.56;100.00
10718;BME280;13513;42.700;23.124;2023-06-14T04:24:58;92709.61;;;18.76;100.00
10718;BME280;13513;42.700;23.124;2023-06-14T04:27:29;92708.47;;;19.04;100.00
10718;BME280;13513;42.700;23.124;2023-06-14T04:30:00;92702.09;;;19.14;100.00
10718;BME280;13513;42.700;23.124;2023-06-14T04:32:31;92701.94;;;19.32;100.00
10718;BME280;13513;42.700;23.124;2023-06-14T04:35:08;92705.52;;;19.28;100.00
10718;BME280;13513;42.700;23.124;2023-06-14T04:37:38;92710.97;;;19.23;100.00
10718;BME280;13513;42.700;23.124;2023-06-14T04:40:10;92703.51;;;19.33;100.00
10718;BME280;13513;42.700;23.124;2023-06-14T04:42:41;92705.52;;;19.50;100.00
10718;BME280;13513;42.700;23.124;2023-06-14T04:45:11;92704.72;;;19.49;100.00
10718;BME280;13513;42.700;23.124;2023-06-14T04:47:42;92707.32;;;19.74;100.00
10718;BME280;13513;42.700;23.124;2023-06-14T04:50:13;92706.37;;;20.01;100.00
10718;BME280;13513;42.700;23.124;2023-06-14T04:52:44;92710.54;;;20.26;100.00
10718;BME280;13513;42.700;23.124;2023-06-14T04:55:16;92722.83;;;20.47;100.00
10718;BME280;13513;42.700;23.124;2023-06-14T04:57:48;92716.45;;;20.54;100.00
10718;BME280;13513;42.700;23.124;2023-06-14T05:00:20;92718.79;;;20.66;100.00
10718;BME280;13513;42.700;23.124;2023-06-14T05:02:51;92721.89;;;20.79;100.00
10718;BME280;13513;42.700;23.124;2023-06-14T05:05:22;92722.80;;;20.86;100.00
10718;BME280;13513;42.700;23.124;2023-06-14T05:07:53;92725.27;;;20.93;100.00
10718;BME280;13513;42.700;23.124;2023-06-14T05:10:24;92731.93;;;21.04;100.00
10718;BME280;13513;42.700;23.124;2023-06-14T05:12:55;92730.27;;;21.06;100.00
10718;BME280;13513;42.700;23.124;2023-06-14T05:15:25;92736.11;;;21.08;100.00
10718;BME280;13513;42.700;23.124;2023-06-14T05:17:54;92741.36;;;21.13;100.00
10718;BME280;13513;42.700;23.124;2023-06-14T05:20:27;92737.63;;;21.20;100.00
10718;BME280;13513;42.700;23.124;2023-06-14T05:25:26;92744.52;;;21.49;100.00
10718;BME280;13513;42.700;23.124;2023-06-14T05:27:57;92749.42;;;21.64;100.00
10718;BME280;13513;42.700;23.124;2023-06-14T05:30:28;92752.52;;;21.77;100.00
10718;BME280;13513;42.700;23.124;2023-06-14T05:32:59;92755.84;;;21.82;100.00
10718;BME280;13513;42.700;23.124;2023-06-14T05:35:29;92746.99;;;21.82;100.00
10718;BME280;13513;42.700;23.124;2023-06-14T05:38:02;92756.33;;;21.76;100.00
10718;BME280;13513;42.700;23.124;2023-06-14T05:40:35;92757.84;;;21.71;100.00
10718;BME280;13513;42.700;23.124;2023-06-14T05:43:07;92759.33;;;21.74;100.00
10718;BME280;13513;42.700;23.124;2023-06-14T05:45:37;92760.59;;;21.77;100.00
10718;BME280;13513;42.700;23.124;2023-06-14T05:48:08;92758.78;;;21.75;100.00
10718;BME280;13513;42.700;23.124;2023-06-14T05:50:39;92760.01;;;21.69;100.00
10718;BME280;13513;42.700;23.124;2023-06-14T05:53:10;92765.59;;;21.72;100.00
10718;BME280;13513;42.700;23.124;2023-06-14T05:55:40;92762.70;;;21.69;100.00
10718;BME280;13513;42.700;23.124;2023-06-14T05:58:11;92763.59;;;21.75;100.00
10718;BME280;13513;42.700;23.124;2023-06-14T06:00:40;92757.09;;;21.93;100.00
10718;BME280;13513;42.700;23.124;2023-06-14T06:03:12;92759.91;;;22.05;95.66
10718;BME280;13513;42.700;23.124;2023-06-14T06:05:43;92766.83;;;21.41;100.00
10718;BME280;13513;42.700;23.124;2023-06-14T06:08:14;92771.14;;;20.86;100.00
10718;BME280;13513;42.700;23.124;2023-06-14T06:10:45;92769.45;;;20.51;100.00
10718;BME280;13513;42.700;23.124;2023-06-14T06:13:15;92765.32;;;20.03;100.00
10718;BME280;13513;42.700;23.124;2023-06-14T06:15:48;92761.85;;;20.14;100.00
10718;BME280;13513;42.700;23.124;2023-06-14T06:18:19;92761.36;;;20.01;100.00
10718;BME280;13513;42.700;23.124;2023-06-14T06:20:50;92767.27;;;20.61;100.00
10718;BME280;13513;42.700;23.124;2023-06-14T06:23:21;92776.20;;;21.15;100.00
10718;BME280;13513;42.700;23.124;2023-06-14T06:25:52;92780.98;;;20.99;100.00
10718;BME280;13513;42.700;23.124;2023-06-14T06:28:23;92780.57;;;21.22;100.00
10718;BME280;13513;42.700;23.124;2023-06-14T06:30:54;92773.89;;;21.03;100.00
10718;BME280;13513;42.700;23.124;2023-06-14T06:33:25;92776.55;;;20.75;100.00
10718;BME280;13513;42.700;23.124;2023-06-14T06:35:56;92775.07;;;20.10;100.00
10718;BME280;13513;42.700;23.124;2023-06-14T06:38:27;92770.40;;;20.35;100.00
10718;BME280;13513;42.700;23.124;2023-06-14T06:40:58;92772.42;;;20.30;100.00
10718;BME280;13513;42.700;23.124;2023-06-14T06:43:29;92769.66;;;20.32;100.00
10718;BME280;13513;42.700;23.124;2023-06-14T06:46:00;92775.36;;;20.50;100.00
10718;BME280;13513;42.700;23.124;2023-06-14T06:48:30;92775.59;;;20.71;100.00
10718;BME280;13513;42.700;23.124;2023-06-14T06:51:01;92783.08;;;21.19;100.00
10718;BME280;13513;42.700;23.124;2023-06-14T06:53:32;92780.34;;;21.55;100.00
10718;BME280;13513;42.700;23.124;2023-06-14T06:56:03;92783.00;;;21.21;100.00
10718;BME280;13513;42.700;23.124;2023-06-14T06:58:33;92784.71;;;21.00;100.00
10718;BME280;13513;42.700;23.124;2023-06-14T07:01:04;92782.36;;;21.16;100.00
10718;BME280;13513;42.700;23.124;2023-06-14T07:03:35;92776.64;;;21.79;100.00
10718;BME280;13513;42.700;23.124;2023-06-14T07:06:06;92779.56;;;21.89;100.00
10718;BME280;13513;42.700;23.124;2023-06-14T07:08:37;92786.84;;;21.54;100.00
10718;BME280;13513;42.700;23.124;2023-06-14T07:11:08;92785.47;;;21.37;100.00
10718;BME280;13513;42.700;23.124;2023-06-14T07:13:38;92781.97;;;21.20;100.00
10718;BME280;13513;42.700;23.124;2023-06-14T07:16:09;92783.01;;;20.74;100.00
10718;BME280;13513;42.700;23.124;2023-06-14T07:18:40;92782.12;;;20.87;100.00
10718;BME280;13513;42.700;23.124;2023-06-14T07:21:12;92781.42;;;20.64;100.00
10718;BME280;13513;42.700;23.124;2023-06-14T07:23:43;92784.23;;;20.79;100.00
10718;BME280;13513;42.700;23.124;2023-06-14T07:26:14;92785.83;;;20.99;100.00
10718;BME280;13513;42.700;23.124;2023-06-14T07:28:46;92784.35;;;21.13;100.00
10718;BME280;13513;42.700;23.124;2023-06-14T07:31:16;92785.70;;;21.13;100.00
10718;BME280;13513;42.700;23.124;2023-06-14T07:33:46;92785.28;;;21.08;100.00
10718;BME280;13513;42.700;23.124;2023-06-14T07:36:17;92786.16;;;21.15;100.00
10718;BME280;13513;42.700;23.124;2023-06-14T07:38:47;92789.23;;;21.90;98.32
10718;BME280;13513;42.700;23.124;2023-06-14T07:41:18;92779.47;;;22.40;97.06
10718;BME280;13513;42.700;23.124;2023-06-14T07:43:49;92784.70;;;22.68;90.65
10718;BME280;13513;42.700;23.124;2023-06-14T07:46:19;92786.41;;;22.95;92.17
10718;BME280;13513;42.700;23.124;2023-06-14T07:48:50;92786.55;;;23.28;96.70
10718;BME280;13513;42.700;23.124;2023-06-14T07:51:21;92796.88;;;23.26;87.35
10718;BME280;13513;42.700;23.124;2023-06-14T07:53:52;92792.14;;;22.71;93.36
10718;BME280;13513;42.700;23.124;2023-06-14T07:56:23;92795.36;;;22.79;91.60
10718;BME280;13513;42.700;23.124;2023-06-14T07:58:54;92797.34;;;22.44;96.89
10718;BME280;13513;42.700;23.124;2023-06-14T08:01:25;92793.52;;;22.62;98.06
10718;BME280;13513;42.700;23.124;2023-06-14T08:03:55;92796.64;;;22.73;95.43
10718;BME280;13513;42.700;23.124;2023-06-14T08:06:26;92799.11;;;23.39;95.50
10718;BME280;13513;42.700;23.124;2023-06-14T08:08:57;92806.06;;;24.48;81.65
10718;BME280;13513;42.700;23.124;2023-06-14T08:11:27;92805.96;;;25.13;82.09
10718;BME280;13513;42.700;23.124;2023-06-14T08:13:57;92811.80;;;25.75;66.85
10718;BME280;13513;42.700;23.124;2023-06-14T08:16:28;92822.84;;;26.22;66.18
10718;BME280;13513;42.700;23.124;2023-06-14T08:18:59;92814.59;;;26.46;65.29
10718;BME280;13513;42.700;23.124;2023-06-14T08:21:29;92819.99;;;26.30;65.76
10718;BME280;13513;42.700;23.124;2023-06-14T08:24:00;92820.89;;;26.28;65.55
10718;BME280;13513;42.700;23.124;2023-06-14T08:26:31;92826.86;;;26.00;66.47
10718;BME280;13513;42.700;23.124;2023-06-14T08:29:02;92824.59;;;25.39;67.58
10718;BME280;13513;42.700;23.124;2023-06-14T08:31:34;92821.56;;;24.66;69.55
10718;BME280;13513;42.700;23.124;2023-06-14T08:34:05;92820.14;;;23.95;73.59
10718;BME280;13513;42.700;23.124;2023-06-14T08:36:38;92815.67;;;23.84;78.69
10718;BME280;13513;42.700;23.124;2023-06-14T08:39:11;92818.88;;;24.84;68.17
10718;BME280;13513;42.700;23.124;2023-06-14T08:41:45;92812.19;;;26.35;68.69
10718;BME280;13513;42.700;23.124;2023-06-14T08:44:15;92816.24;;;27.21;58.16
10718;BME280;13513;42.700;23.124;2023-06-14T08:46:47;92813.64;;;26.32;61.32
10718;BME280;13513;42.700;23.124;2023-06-14T08:49:18;92809.93;;;26.80;63.47
10718;BME280;13513;42.700;23.124;2023-06-14T08:51:56;92811.13;;;27.20;55.32
10718;BME280;13513;42.700;23.124;2023-06-14T08:54:22;92810.97;;;26.97;57.49
10718;BME280;13513;42.700;23.124;2023-06-14T08:56:53;92810.99;;;26.91;55.61
10718;BME280;13513;42.700;23.124;2023-06-14T08:59:27;92812.07;;;25.40;62.82
10718;BME280;13513;42.700;23.124;2023-06-14T09:01:59;92809.55;;;24.99;67.78
10718;BME280;13513;42.700;23.124;2023-06-14T09:04:30;92811.64;;;24.64;67.32
10718;BME280;13513;42.700;23.124;2023-06-14T09:07:01;92805.28;;;24.98;71.50
10718;BME280;13513;42.700;23.124;2023-06-14T09:09:32;92812.52;;;25.30;68.48
10718;BME280;13513;42.700;23.124;2023-06-14T09:12:03;92803.03;;;25.06;67.90
10718;BME280;13513;42.700;23.124;2023-06-14T09:14:35;92795.09;;;24.33;73.79
10718;BME280;13513;42.700;23.124;2023-06-14T09:17:09;92794.28;;;24.26;79.95
10718;BME280;13513;42.700;23.124;2023-06-14T09:19:40;92799.50;;;24.11;76.59
10718;BME280;13513;42.700;23.124;2023-06-14T09:22:12;92794.82;;;23.93;79.58
10718;BME280;13513;42.700;23.124;2023-06-14T09:24:42;92792.58;;;24.22;74.88
10718;BME280;13513;42.700;23.124;2023-06-14T09:27:16;92789.81;;;23.63;80.67
10718;BME280;13513;42.700;23.124;2023-06-14T09:29:47;92790.39;;;23.48;77.53
10718;BME280;13513;42.700;23.124;2023-06-14T09:32:18;92787.23;;;23.16;80.68
10718;BME280;13513;42.700;23.124;2023-06-14T09:34:49;92794.14;;;22.97;87.60
10718;BME280;13513;42.700;23.124;2023-06-14T09:37:32;92789.34;;;23.40;83.28
10718;BME280;13513;42.700;23.124;2023-06-14T09:40:01;92774.16;;;23.77;84.92
10718;BME280;13513;42.700;23.124;2023-06-14T09:42:33;92783.45;;;24.14;75.54
10718;BME280;13513;42.700;23.124;2023-06-14T09:45:04;92782.34;;;23.95;79.37
10718;BME280;13513;42.700;23.124;2023-06-14T09:47:36;92773.95;;;24.35;82.20
10718;BME280;13513;42.700;23.124;2023-06-14T09:50:08;92776.52;;;23.99;82.33
10718;BME280;13513;42.700;23.124;2023-06-14T09:52:39;92774.33;;;23.72;84.70
10718;BME280;13513;42.700;23.124;2023-06-14T09:55:15;92771.55;;;24.27;76.60
10718;BME280;13513;42.700;23.124;2023-06-14T09:57:43;92782.95;;;24.83;69.62
10718;BME280;13513;42.700;23.124;2023-06-14T10:00:15;92783.63;;;25.16;67.02
10718;BME280;13513;42.700;23.124;2023-06-14T10:02:48;92783.89;;;25.29;64.58
10718;BME280;13513;42.700;23.124;2023-06-14T10:05:18;92783.75;;;25.44;65.46
10718;BME280;13513;42.700;23.124;2023-06-14T10:08:00;92771.67;;;24.69;74.79
10718;BME280;13513;42.700;23.124;2023-06-14T10:10:29;92771.11;;;24.25;76.80
10718;BME280;13513;42.700;23.124;2023-06-14T10:13:00;92765.45;;;24.24;75.40
10718;BME280;13513;42.700;23.124;2023-06-14T10:15:35;92756.47;;;24.26;75.89
10718;BME280;13513;42.700;23.124;2023-06-14T10:18:13;92761.95;;;24.18;80.27
10718;BME280;13513;42.700;23.124;2023-06-14T10:20:48;92757.60;;;24.31;75.69
10718;BME280;13513;42.700;23.124;2023-06-14T10:23:22;92753.52;;;24.19;86.89
10718;BME280;13513;42.700;23.124;2023-06-14T10:25:59;92756.72;;;24.39;73.43
10718;BME280;13513;42.700;23.124;2023-06-14T10:28:29;92755.69;;;24.64;73.14
10718;BME280;13513;42.700;23.124;2023-06-14T10:31:12;92751.86;;;24.71;74.33
10718;BME280;13513;42.700;23.124;2023-06-14T10:33:49;92750.69;;;24.60;71.94
10718;BME280;13513;42.700;23.124;2023-06-14T10:36:31;92742.16;;;24.82;79.84
10718;BME280;13513;42.700;23.124;2023-06-14T10:39:09;92740.38;;;24.98;70.46
10718;BME280;13513;42.700;23.124;2023-06-14T10:41:40;92741.75;;;24.36;77.92
10718;BME280;13513;42.700;23.124;2023-06-14T10:47:00;92751.05;;;24.14;73.13
10718;BME280;13513;42.700;23.124;2023-06-14T10:49:49;92745.31;;;24.16;73.17
10718;BME280;13513;42.700;23.124;2023-06-14T10:52:20;92742.17;;;24.20;74.20
10718;BME280;13513;42.700;23.124;2023-06-14T10:55:23;92739.72;;;24.27;73.31
10718;BME280;13513;42.700;23.124;2023-06-14T10:57:27;92737.32;;;24.76;67.52
10718;BME280;13513;42.700;23.124;2023-06-14T10:59:58;92732.03;;;25.03;69.13
10718;BME280;13513;42.700;23.124;2023-06-14T11:05:30;92729.30;;;25.85;67.66
10718;BME280;13513;42.700;23.124;2023-06-14T11:08:15;92718.08;;;25.92;62.20
10718;BME280;13513;42.700;23.124;2023-06-14T11:10:43;92717.46;;;25.38;61.05
10718;BME280;13513;42.700;23.124;2023-06-14T11:13:18;92705.41;;;25.23;66.33
10718;BME280;13513;42.700;23.124;2023-06-14T11:15:48;92700.02;;;25.17;71.57
10718;BME280;13513;42.700;23.124;2023-06-14T11:18:19;92701.72;;;25.16;67.72
10718;BME280;13513;42.700;23.124;2023-06-14T11:20:50;92709.25;;;25.22;74.15
10718;BME280;13513;42.700;23.124;2023-06-14T11:23:22;92712.09;;;25.02;65.83
10718;BME280;13513;42.700;23.124;2023-06-14T11:25:53;92703.75;;;25.31;71.71
10718;BME280;13513;42.700;23.124;2023-06-14T11:28:34;92710.27;;;25.36;73.74
10718;BME280;13513;42.700;23.124;2023-06-14T11:31:03;92711.59;;;25.42;68.37
10718;BME280;13513;42.700;23.124;2023-06-14T11:33:34;92709.59;;;25.27;71.31
10718;BME280;13513;42.700;23.124;2023-06-14T11:36:05;92710.06;;;25.05;61.31
10718;BME280;13513;42.700;23.124;2023-06-14T11:38:38;92703.50;;;25.36;65.30
10718;BME280;13513;42.700;23.124;2023-06-14T11:41:09;92704.55;;;24.89;66.69
10718;BME280;13513;42.700;23.124;2023-06-14T11:43:41;92701.50;;;24.73;67.17
10718;BME280;13513;42.700;23.124;2023-06-14T11:46:14;92702.13;;;24.46;67.59
10718;BME280;13513;42.700;23.124;2023-06-14T11:48:45;92696.23;;;24.64;68.93
10718;BME280;13513;42.700;23.124;2023-06-14T11:51:15;92690.46;;;25.08;68.09
10718;BME280;13513;42.700;23.124;2023-06-14T11:53:46;92679.95;;;25.12;67.63
10718;BME280;13513;42.700;23.124;2023-06-14T11:56:17;92685.05;;;24.96;66.09
10718;BME280;13513;42.700;23.124;2023-06-14T11:58:50;92683.52;;;24.08;71.71
10718;BME280;13513;42.700;23.124;2023-06-14T12:01:22;92678.77;;;24.05;80.82
10718;BME280;13513;42.700;23.124;2023-06-14T12:03:53;92673.40;;;24.11;72.50
10718;BME280;13513;42.700;23.124;2023-06-14T12:06:28;92670.28;;;24.33;77.33
10718;BME280;13513;42.700;23.124;2023-06-14T12:08:59;92665.67;;;24.52;71.86
10718;BME280;13513;42.700;23.124;2023-06-14T12:11:34;92661.61;;;24.46;69.44
10718;BME280;13513;42.700;23.124;2023-06-14T12:14:05;92668.80;;;24.30;73.11
10718;BME280;13513;42.700;23.124;2023-06-14T12:16:40;92670.16;;;24.24;68.40
10718;BME280;13513;42.700;23.124;2023-06-14T12:19:17;92667.02;;;24.28;68.81
10718;BME280;13513;42.700;23.124;2023-06-14T12:21:49;92663.19;;;24.53;78.30
10718;BME280;13513;42.700;23.124;2023-06-14T12:24:20;92660.61;;;24.86;71.59
10718;BME280;13513;42.700;23.124;2023-06-14T12:26:53;92662.16;;;25.05;64.40
10718;BME280;13513;42.700;23.124;2023-06-14T12:29:26;92664.59;;;24.77;65.72
10718;BME280;13513;42.700;23.124;2023-06-14T12:31:58;92655.02;;;24.61;65.34
10718;BME280;13513;42.700;23.124;2023-06-14T12:34:38;92657.44;;;24.18;67.35
10718;BME280;13513;42.700;23.124;2023-06-14T12:37:03;92649.30;;;24.00;73.17
10718;BME280;13513;42.700;23.124;2023-06-14T12:39:34;92643.05;;;23.82;70.59
10718;BME280;13513;42.700;23.124;2023-06-14T12:42:05;92647.29;;;23.71;71.21
10718;BME280;13513;42.700;23.124;2023-06-14T12:44:36;92639.96;;;23.59;75.95
10718;BME280;13513;42.700;23.124;2023-06-14T12:47:08;92637.01;;;23.58;73.40
10718;BME280;13513;42.700;23.124;2023-06-14T12:49:40;92635.91;;;23.65;69.64
10718;BME280;13513;42.700;23.124;2023-06-14T12:52:11;92637.77;;;23.53;71.13
10718;BME280;13513;42.700;23.124;2023-06-14T12:54:42;92630.81;;;23.46;75.82
10718;BME280;13513;42.700;23.124;2023-06-14T12:57:12;92631.09;;;23.38;76.79
10718;BME280;13513;42.700;23.124;2023-06-14T12:59:43;92632.23;;;23.37;77.77
10718;BME280;13513;42.700;23.124;2023-06-14T13:02:18;92640.87;;;23.37;78.26
10718;BME280;13513;42.700;23.124;2023-06-14T13:04:51;92635.23;;;23.15;79.42
10718;BME280;13513;42.700;23.124;2023-06-14T13:07:22;92643.05;;;23.08;74.78
10718;BME280;13513;42.700;23.124;2023-06-14T13:09:53;92639.02;;;23.23;77.91
10718;BME280;13513;42.700;23.124;2023-06-14T13:12:25;92641.23;;;23.41;77.73
10718;BME280;13513;42.700;23.124;2023-06-14T13:14:56;92640.80;;;23.51;82.17
10718;BME280;13513;42.700;23.124;2023-06-14T13:17:26;92641.60;;;23.52;84.70
10718;BME280;13513;42.700;23.124;2023-06-14T13:19:57;92644.09;;;23.57;91.59